Speaks, Texas
Current Conditions -  °F | °C
As of 4:35 AM on Thursday 27 Nov 2014 (Local Time) from K66R Reporting Station
Clear Clear  
Wind Chill: 45°   Ceiling: Unl
Heat Index: 45°   Visibility: 10mi
Dew Point: 38°   Wind: 0mph
Humidity: 77%   Direction: NA
Pressure: 30.39"   Gusts: NA
Location:  29.25°N, 96.7°W
Report Text: K66R 271035Z AUTO 00000KT 10SM CLR 07/03 A3039 RMK AO2 T00700032
Loading
Personal Weather Stations






























Interactive Weather Map New forecast layout! Learn more

10-Day Weather Forecast

Advertisements
Track Severe Weather on mobile